Time,TemperatureF,DewpointF,PressureIn,WindDirection,WindDirectionDegrees,WindSpeedMPH,WindSpeedGustMPH,Humidity,HourlyPrecipIn,Conditions,Clouds,dailyrainin,SoftwareType,DateUTC
2013-07-16 00:55:00,80.4,72.5,30.06,ESE,118,3.0,14.0,77,0.00,,BKN250,0.00,VWS V14.00,2013-07-16 04:55:00,
2013-07-16 01:55:00,78.6,71.2,30.06,East,84,0.0,15.0,78,3.51,,BKN250,0.08,VWS V14.00,2013-07-16 05:55:00,
2013-07-16 02:55:00,79.1,73.1,30.04,ESE,108,11.0,15.0,82,0.00,,-RA,0.11,VWS V14.00,2013-07-16 06:55:00,
2013-07-16 03:55:00,77.6,73.1,30.03,ESE,119,0.0,13.0,86,0.00,,BKN070,0.11,VWS V14.00,2013-07-16 07:55:00,
2013-07-16 04:55:00,73.1,71.3,30.04,South,187,0.0,26.0,94,0.73,,-RA,0.46,VWS V14.00,2013-07-16 08:55:00,
2013-07-16 05:55:00,75.1,71.6,30.04,East,85,3.0,13.0,89,0.00,,BKN110,0.48,VWS V14.00,2013-07-16 09:55:00,
2013-07-16 06:55:00,78.3,72.7,30.04,East,92,7.0,13.0,83,0.00,,BKN180,0.48,VWS V14.00,2013-07-16 10:55:00,
2013-07-16 07:55:00,80.5,72.6,30.05,East,91,11.0,16.0,77,0.00,,BKN095,0.48,VWS V14.00,2013-07-16 11:55:00,
2013-07-16 08:55:00,81.9,74.4,30.07,ENE,59,9.0,18.0,78,0.00,,BKN095,0.48,VWS V14.00,2013-07-16 12:55:00,
2013-07-16 09:55:00,74.0,68.9,30.09,SE,146,3.0,27.0,84,0.00,,-RA,0.52,VWS V14.00,2013-07-16 13:55:00,
2013-07-16 10:55:00,75.1,71.6,30.11,ESE,115,15.0,20.0,89,0.00,, +RA,0.53,VWS V14.00,2013-07-16 14:55:00,
2013-07-16 11:55:00,74.6,71.8,30.12,ENE,78,3.0,24.0,91,0.04,,OVC050,0.62,VWS V14.00,2013-07-16 15:55:00,
2013-07-16 12:55:00,74.3,69.5,30.12,East,96,3.0,27.0,85,0.07,, +RA,0.67,VWS V14.00,2013-07-16 16:55:00,
2013-07-16 13:55:00,77.0,70.7,30.10,ESE,111,5.0,15.0,81,0.00,,-RA,0.69,VWS V14.00,2013-07-16 17:55:00,
2013-07-16 14:55:00,79.3,71.1,30.08,ESE,108,1.0,14.0,76,0.00,,OVC250,0.69,VWS V14.00,2013-07-16 18:55:00,
2013-07-16 15:55:00,80.9,72.2,30.06,East,99,7.0,13.0,75,0.00,,BKN250,0.69,VWS V14.00,2013-07-16 19:55:00,
2013-07-16 16:55:00,80.8,71.7,30.05,ESE,113,5.0,14.0,74,0.00,,OVC250,0.69,VWS V14.00,2013-07-16 20:55:00,
2013-07-16 17:55:00,82.4,69.9,30.06,SE,131,6.0,12.0,66,0.00,,BKN200,0.69,VWS V14.00,2013-07-16 21:55:00,
2013-07-16 18:55:00,81.1,71.2,30.06,East,96,6.0,11.0,72,0.00,,BKN250,0.69,VWS V14.00,2013-07-16 22:55:00,
2013-07-16 19:55:00,80.0,74.0,30.08,ESE,109,3.0,14.0,82,0.00,,BKN080,0.69,VWS V14.00,2013-07-16 23:55:00,
2013-07-16 20:55:00,79.1,71.3,30.07,ESE,121,2.0,11.0,77,0.00,,BKN050,0.69,VWS V14.00,2013-07-17 00:55:00,
2013-07-16 21:55:00,77.8,71.5,30.09,ESE,107,2.0,11.0,81,0.00,,BKN200,0.69,VWS V14.00,2013-07-17 01:55:00,
2013-07-16 22:55:00,78.5,71.8,30.10,ESE,106,6.0,11.0,80,0.00,,BKN200,0.69,VWS V14.00,2013-07-17 02:55:00,
2013-07-16 23:57:00,78.9,71.8,30.10,East,100,3.0,9.0,79,0.00,,BKN200,0.00,VWS V14.00,2013-07-17 03:57:00,